createdAt,value
2023-05-06T00:01:46.468Z,14.82
2023-05-06T00:04:34.884Z,14.82
2023-05-06T00:07:23.387Z,14.82
2023-05-06T00:10:11.802Z,14.81
2023-05-06T00:13:01.694Z,14.77
2023-05-06T00:15:50.183Z,14.77
2023-05-06T00:18:38.536Z,14.75
2023-05-06T00:21:28.300Z,14.73
2023-05-06T00:24:16.681Z,14.70
2023-05-06T00:27:05.084Z,14.69
2023-05-06T00:29:54.865Z,14.64
2023-05-06T00:32:43.381Z,14.61
2023-05-06T00:35:31.873Z,14.60
2023-05-06T00:38:20.543Z,14.54
2023-05-06T00:41:09.981Z,14.48
2023-05-06T00:43:58.420Z,14.45
2023-05-06T00:46:48.199Z,14.45
2023-05-06T00:49:36.617Z,14.43
2023-05-06T00:52:25.057Z,14.41
2023-05-06T00:55:13.464Z,14.40
2023-05-06T00:58:02.092Z,14.34
2023-05-06T01:00:52.335Z,14.34
2023-05-06T01:03:42.317Z,14.28
2023-05-06T01:06:35.878Z,14.30
2023-05-06T01:09:29.867Z,14.32
2023-05-06T01:12:22.431Z,14.33
2023-05-06T01:15:15.095Z,14.30
2023-05-06T01:18:07.843Z,14.27
2023-05-06T01:20:57.998Z,14.15
2023-05-06T01:23:53.399Z,14.18
2023-05-06T01:26:42.999Z,14.20
2023-05-06T01:29:31.501Z,14.16
2023-05-06T01:32:27.664Z,14.17
2023-05-06T01:35:19.128Z,14.15
2023-05-06T01:38:15.585Z,14.14
2023-05-06T01:41:05.843Z,14.14
2023-05-06T01:43:55.297Z,14.12
2023-05-06T01:46:44.501Z,14.08
2023-05-06T01:49:34.139Z,14.08
2023-05-06T01:52:22.944Z,14.09
2023-05-06T01:55:11.992Z,14.06
2023-05-06T01:58:02.470Z,14.05
2023-05-06T02:00:50.885Z,14.03
2023-05-06T02:03:39.459Z,14.01
2023-05-06T02:06:28.079Z,13.98
2023-05-06T02:09:16.607Z,13.97
2023-05-06T02:12:11.657Z,13.96
2023-05-06T02:15:01.437Z,13.90
2023-05-06T02:17:50.314Z,13.71
2023-05-06T02:20:38.887Z,13.81
2023-05-06T02:23:27.682Z,13.77
2023-05-06T02:26:16.515Z,13.78
2023-05-06T02:29:04.927Z,13.79
2023-05-06T02:31:54.759Z,13.81
2023-05-06T02:34:43.126Z,13.81
2023-05-06T02:37:31.514Z,13.75
2023-05-06T02:40:21.883Z,13.74
2023-05-06T02:43:10.256Z,13.70
2023-05-06T02:46:18.262Z,13.64
2023-05-06T02:49:27.010Z,13.67
2023-05-06T02:52:15.518Z,13.70
2023-05-06T02:55:04.176Z,13.75
2023-05-06T02:57:52.571Z,13.77
2023-05-06T03:00:40.939Z,13.80
2023-05-06T03:03:29.352Z,13.78
2023-05-06T03:06:19.130Z,13.80
2023-05-06T03:09:08.691Z,13.76
2023-05-06T03:11:57.858Z,13.73
2023-05-06T03:14:46.415Z,13.71
2023-05-06T03:17:34.854Z,13.69
2023-05-06T03:20:25.819Z,13.70
2023-05-06T03:23:18.471Z,13.62
2023-05-06T03:26:08.666Z,13.53
2023-05-06T03:28:57.548Z,13.59
2023-05-06T03:31:46.585Z,13.36
2023-05-06T03:34:35.084Z,13.47
2023-05-06T03:37:23.759Z,13.49
2023-05-06T03:40:17.638Z,13.57
2023-05-06T03:43:06.597Z,13.62
2023-05-06T03:45:55.429Z,13.62
2023-05-06T03:48:44.699Z,13.65
2023-05-06T03:51:36.560Z,13.65
2023-05-06T03:54:25.425Z,13.68
2023-05-06T03:57:15.358Z,13.68
2023-05-06T04:00:05.507Z,13.70
2023-05-06T04:03:04.604Z,13.66
2023-05-06T04:06:00.943Z,13.68
2023-05-06T04:08:49.610Z,13.70
2023-05-06T04:11:39.481Z,13.73
2023-05-06T04:14:31.941Z,13.75
2023-05-06T04:17:20.884Z,13.77
2023-05-06T04:20:11.946Z,13.78
2023-05-06T04:23:02.776Z,13.78
2023-05-06T04:25:51.419Z,13.78
2023-05-06T04:28:41.862Z,13.79
2023-05-06T04:31:34.434Z,13.71
2023-05-06T04:34:27.786Z,13.75
2023-05-06T04:37:18.908Z,13.77
2023-05-06T04:40:13.750Z,13.79
2023-05-06T04:43:05.238Z,13.81
2023-05-06T04:45:54.386Z,13.83
2023-05-06T04:48:49.006Z,13.84
2023-05-06T04:51:38.286Z,13.85
2023-05-06T04:54:27.089Z,13.87
2023-05-06T04:57:15.479Z,13.83
2023-05-06T05:00:07.831Z,13.84
2023-05-06T05:02:56.504Z,13.79
2023-05-06T05:05:46.220Z,13.84
2023-05-06T05:08:40.875Z,13.86
2023-05-06T05:11:30.497Z,13.83
2023-05-06T05:14:20.513Z,13.85
2023-05-06T05:17:09.045Z,13.82
2023-05-06T05:19:58.983Z,13.88
2023-05-06T05:22:49.963Z,13.89
2023-05-06T05:25:38.469Z,13.91
2023-05-06T05:28:27.498Z,13.94
2023-05-06T05:31:17.068Z,13.88
2023-05-06T05:34:06.071Z,13.90
2023-05-06T05:36:54.400Z,13.63
2023-05-06T05:39:44.202Z,13.71
2023-05-06T05:42:34.104Z,13.73
2023-05-06T05:45:27.822Z,13.80
2023-05-06T05:48:17.369Z,13.87
2023-05-06T05:51:06.936Z,13.87
2023-05-06T05:53:55.392Z,13.85
2023-05-06T05:56:47.204Z,13.95
2023-05-06T05:59:37.528Z,13.89
2023-05-06T06:02:27.154Z,13.80
2023-05-06T06:05:15.554Z,13.95
2023-05-06T06:08:04.090Z,14.03
2023-05-06T06:10:53.441Z,14.12
2023-05-06T06:13:47.481Z,14.20
2023-05-06T06:16:37.713Z,14.27
2023-05-06T06:19:26.202Z,14.31
2023-05-06T06:22:14.720Z,14.26
2023-05-06T06:25:03.183Z,14.32
2023-05-06T06:27:51.624Z,14.34
2023-05-06T06:30:41.864Z,14.23
2023-05-06T06:33:30.170Z,14.17
2023-05-06T06:36:18.504Z,14.34
2023-05-06T06:39:07.503Z,14.42
2023-05-06T06:41:57.416Z,14.42
2023-05-06T06:44:45.989Z,14.55
2023-05-06T06:47:35.776Z,14.63
2023-05-06T06:50:24.140Z,14.68
2023-05-06T06:53:12.773Z,14.62
2023-05-06T06:56:01.207Z,14.58
2023-05-06T06:58:51.212Z,14.73
2023-05-06T07:01:42.675Z,14.85
2023-05-06T07:04:32.538Z,14.99
2023-05-06T07:07:20.941Z,15.06
2023-05-06T07:10:10.015Z,15.03
2023-05-06T07:12:58.668Z,15.07
2023-05-06T07:15:47.130Z,14.94
2023-05-06T07:18:35.534Z,14.84
2023-05-06T07:21:25.356Z,15.10
2023-05-06T07:24:13.757Z,15.24
2023-05-06T07:27:02.411Z,15.36
2023-05-06T07:29:50.998Z,15.44
2023-05-06T07:32:41.052Z,15.52
2023-05-06T07:35:29.454Z,15.46
2023-05-06T07:38:19.158Z,15.40
2023-05-06T07:41:07.558Z,15.49
2023-05-06T07:43:55.930Z,15.65
2023-05-06T07:46:44.551Z,15.60
2023-05-06T07:49:34.140Z,15.62
2023-05-06T07:52:22.615Z,15.57
2023-05-06T07:55:12.706Z,15.53
2023-05-06T07:58:01.343Z,15.76
2023-05-06T08:00:49.746Z,15.88
2023-05-06T08:03:38.312Z,15.88
2023-05-06T08:06:27.149Z,15.60
2023-05-06T08:09:22.727Z,15.51
2023-05-06T08:12:38.516Z,15.82
2023-05-06T08:15:27.099Z,15.80
2023-05-06T08:18:22.309Z,15.94
2023-05-06T08:21:11.069Z,15.97
2023-05-06T08:23:59.551Z,16.04
2023-05-06T08:26:47.896Z,16.04
2023-05-06T08:29:37.637Z,16.06
2023-05-06T08:32:26.194Z,16.15
2023-05-06T08:35:14.605Z,16.22
2023-05-06T08:38:03.021Z,16.37
2023-05-06T08:40:53.815Z,16.37
2023-05-06T08:43:42.811Z,16.30
2023-05-06T08:46:32.817Z,16.41
2023-05-06T08:49:21.258Z,16.42
2023-05-06T08:52:09.825Z,16.64
2023-05-06T08:55:01.516Z,16.75
2023-05-06T08:57:50.590Z,16.85
2023-05-06T09:00:39.156Z,16.67
2023-05-06T09:03:29.050Z,16.83
2023-05-06T09:06:17.513Z,16.73
2023-05-06T09:09:06.493Z,16.73
2023-05-06T09:11:57.488Z,16.98
2023-05-06T09:14:46.719Z,17.18
2023-05-06T09:17:35.145Z,17.21
2023-05-06T09:20:24.870Z,17.39
2023-05-06T09:23:15.015Z,17.45
2023-05-06T09:26:03.418Z,17.41
2023-05-06T09:28:52.455Z,17.43
2023-05-06T09:31:44.935Z,17.50
2023-05-06T09:34:33.460Z,17.26
2023-05-06T09:37:23.221Z,17.36
2023-05-06T09:40:12.165Z,17.44
2023-05-06T09:43:01.333Z,17.44
2023-05-06T09:45:49.880Z,17.57
2023-05-06T09:48:38.688Z,17.54
2023-05-06T09:51:28.544Z,17.72
2023-05-06T09:54:18.685Z,17.57
2023-05-06T09:57:07.174Z,17.55
2023-05-06T09:59:55.658Z,17.55
2023-05-06T10:02:45.213Z,17.51
2023-05-06T10:05:33.936Z,17.52
2023-05-06T10:08:24.446Z,17.68
2023-05-06T10:11:14.775Z,17.81
2023-05-06T10:14:03.828Z,17.90
2023-05-06T10:16:52.871Z,17.95
2023-05-06T10:19:43.961Z,17.99
2023-05-06T10:22:40.034Z,18.15
2023-05-06T10:25:33.770Z,18.26
2023-05-06T10:28:29.889Z,18.18
2023-05-06T10:31:20.085Z,18.23
2023-05-06T10:34:09.021Z,18.45
2023-05-06T10:36:58.513Z,18.61
2023-05-06T10:39:47.354Z,18.42
2023-05-06T10:43:22.467Z,18.74
2023-05-06T10:46:13.996Z,18.64
2023-05-06T10:49:19.926Z,18.82
2023-05-06T10:52:14.302Z,18.58
2023-05-06T10:55:02.756Z,18.77
2023-05-06T10:57:55.685Z,18.88
2023-05-06T11:00:54.330Z,18.93
2023-05-06T11:03:45.154Z,18.81
2023-05-06T11:06:38.244Z,18.87
2023-05-06T11:09:28.533Z,18.90
2023-05-06T11:12:21.407Z,19.08
2023-05-06T11:15:25.925Z,19.14
2023-05-06T11:18:44.252Z,19.19
2023-05-06T11:21:42.033Z,19.30
2023-05-06T11:24:31.724Z,19.34
2023-05-06T11:27:22.587Z,19.42
2023-05-06T11:30:14.863Z,19.33
2023-05-06T11:33:05.673Z,19.55
2023-05-06T11:35:55.846Z,19.61
2023-05-06T11:38:45.036Z,19.80
2023-05-06T11:41:34.304Z,19.91
2023-05-06T11:44:27.032Z,19.92
2023-05-06T11:47:15.444Z,20.02
2023-05-06T11:50:07.574Z,20.07
2023-05-06T11:52:57.484Z,19.86
2023-05-06T11:55:46.111Z,19.72
2023-05-06T11:58:34.856Z,19.89
2023-05-06T12:01:23.397Z,20.01
2023-05-06T12:04:40.571Z,20.09
2023-05-06T12:07:28.954Z,20.19
2023-05-06T12:10:20.047Z,20.18
2023-05-06T12:13:08.519Z,19.97
2023-05-06T12:15:57.220Z,20.10
2023-05-06T12:18:45.817Z,20.14
2023-05-06T12:21:39.061Z,20.16
2023-05-06T12:24:30.623Z,20.17
2023-05-06T12:27:33.223Z,20.24
2023-05-06T12:30:30.352Z,20.45
2023-05-06T12:33:18.795Z,20.50
2023-05-06T12:36:10.486Z,20.54
2023-05-06T12:39:00.350Z,20.55
2023-05-06T12:41:49.202Z,20.78
2023-05-06T12:44:40.125Z,20.92
2023-05-06T12:47:28.599Z,21.09
2023-05-06T12:50:31.908Z,20.88
2023-05-06T12:53:32.271Z,20.78
2023-05-06T12:56:20.833Z,20.55
2023-05-06T12:59:09.223Z,20.81
2023-05-06T13:01:59.137Z,21.00
2023-05-06T13:04:47.602Z,21.01
2023-05-06T13:07:35.989Z,20.88
2023-05-06T13:10:24.421Z,21.01
2023-05-06T13:13:12.867Z,20.88
2023-05-06T13:16:01.564Z,21.21
2023-05-06T13:18:52.108Z,21.15
2023-05-06T13:21:40.975Z,20.70
2023-05-06T13:24:29.494Z,20.68
2023-05-06T13:27:18.012Z,20.77
2023-05-06T13:30:08.805Z,20.87
2023-05-06T13:32:57.880Z,20.89
2023-05-06T13:35:47.705Z,20.82
2023-05-06T13:38:36.064Z,20.92
2023-05-06T13:41:25.400Z,21.27
2023-05-06T13:44:13.899Z,21.62
2023-05-06T13:47:02.420Z,21.70
2023-05-06T13:49:50.855Z,21.68
2023-05-06T13:52:40.673Z,21.60
2023-05-06T13:55:29.246Z,21.59
2023-05-06T13:58:18.336Z,21.52
2023-05-06T14:01:07.318Z,21.69
2023-05-06T14:03:55.899Z,21.92
2023-05-06T14:06:44.279Z,21.54
2023-05-06T14:09:34.063Z,21.92
2023-05-06T14:12:23.242Z,22.35
2023-05-06T14:15:13.106Z,22.67
2023-05-06T14:18:01.793Z,22.81
2023-05-06T14:20:50.226Z,22.48
2023-05-06T14:23:38.830Z,22.81
2023-05-06T14:26:28.593Z,23.14
2023-05-06T14:29:16.940Z,23.58
2023-05-06T14:32:05.871Z,23.81
2023-05-06T14:34:54.343Z,23.91
2023-05-06T14:37:42.752Z,24.21
2023-05-06T14:40:31.251Z,24.13
2023-05-06T14:43:20.944Z,24.01
2023-05-06T14:46:09.410Z,23.79
2023-05-06T14:48:57.856Z,23.72
2023-05-06T14:51:48.105Z,24.19
2023-05-06T14:54:42.076Z,24.58
2023-05-06T14:57:30.597Z,24.81
2023-05-06T15:00:20.889Z,24.91
2023-05-06T15:03:09.355Z,25.12
2023-05-06T15:05:57.875Z,25.32
2023-05-06T15:08:46.589Z,24.95
2023-05-06T15:11:34.954Z,24.91
2023-05-06T15:14:23.358Z,25.18
2023-05-06T15:17:13.486Z,25.17
2023-05-06T15:20:02.015Z,25.49
2023-05-06T15:22:50.437Z,25.54
2023-05-06T15:25:39.019Z,25.70
2023-05-06T15:28:27.495Z,25.80
2023-05-06T15:31:15.941Z,25.90
2023-05-06T15:34:06.030Z,25.95
2023-05-06T15:36:54.805Z,26.04
2023-05-06T15:39:43.177Z,26.20
2023-05-06T15:42:31.685Z,26.30
2023-05-06T15:45:20.348Z,26.28
2023-05-06T15:48:08.878Z,26.34
2023-05-06T15:50:58.652Z,26.28
2023-05-06T15:53:47.170Z,25.73
2023-05-06T15:56:40.749Z,26.04
2023-05-06T15:59:29.890Z,26.07
2023-05-06T16:05:10.498Z,25.68
2023-05-06T16:08:00.353Z,25.88
2023-05-06T16:10:48.739Z,26.04
2023-05-06T16:13:37.112Z,26.13
2023-05-06T16:16:25.540Z,25.63
2023-05-06T16:19:13.991Z,25.73
2023-05-06T16:22:02.541Z,25.60
2023-05-06T16:24:52.319Z,25.45
2023-05-06T16:27:41.741Z,25.30
2023-05-06T16:30:30.110Z,24.61
2023-05-06T16:33:18.482Z,24.66
2023-05-06T16:36:07.748Z,24.71
2023-05-06T16:38:56.279Z,24.68
2023-05-06T16:41:46.512Z,24.63
2023-05-06T16:44:35.193Z,24.47
2023-05-06T16:47:24.317Z,24.38
2023-05-06T16:50:14.114Z,24.28
2023-05-06T16:53:02.533Z,24.13
2023-05-06T16:55:50.919Z,24.05
2023-05-06T16:58:40.698Z,23.94
2023-05-06T17:01:29.239Z,23.75
2023-05-06T17:04:17.721Z,23.57
2023-05-06T17:07:06.407Z,23.07
2023-05-06T17:09:54.787Z,23.09
2023-05-06T17:12:43.252Z,23.08
2023-05-06T17:15:33.098Z,23.02
2023-05-06T17:18:21.489Z,22.92
2023-05-06T17:21:09.828Z,22.94
2023-05-06T17:24:00.153Z,22.84
2023-05-06T17:26:48.510Z,22.81
2023-05-06T17:29:36.953Z,22.71
2023-05-06T17:32:26.797Z,22.63
2023-05-06T17:35:15.196Z,22.54
2023-05-06T17:38:03.529Z,22.39
2023-05-06T17:40:51.951Z,22.36
2023-05-06T17:43:40.294Z,22.34
2023-05-06T17:46:28.726Z,22.27
2023-05-06T17:49:18.404Z,22.18
2023-05-06T17:52:06.926Z,22.10
2023-05-06T17:55:11.185Z,22.02
2023-05-06T17:58:04.735Z,21.85
2023-05-06T18:00:53.132Z,21.79
2023-05-06T18:03:41.580Z,21.71
2023-05-06T18:06:31.265Z,21.61
2023-05-06T18:09:19.710Z,21.53
2023-05-06T18:12:08.417Z,21.44
2023-05-06T18:14:56.836Z,21.33
2023-05-06T18:17:46.079Z,21.22
2023-05-06T18:20:34.556Z,21.10
2023-05-06T18:23:24.261Z,20.98
2023-05-06T18:26:12.601Z,20.88
2023-05-06T18:29:03.118Z,20.83
2023-05-06T18:31:51.477Z,20.73
2023-05-06T18:34:40.685Z,20.59
2023-05-06T18:37:29.444Z,20.41
2023-05-06T18:40:19.425Z,20.33
2023-05-06T18:43:08.161Z,20.25
2023-05-06T18:45:56.632Z,20.15
2023-05-06T18:48:45.136Z,20.07
2023-05-06T18:51:33.539Z,20.00
2023-05-06T18:54:21.957Z,19.91
2023-05-06T18:57:12.188Z,19.83
2023-05-06T19:00:00.670Z,19.73
2023-05-06T19:02:49.188Z,19.65
2023-05-06T19:05:37.981Z,19.56
2023-05-06T19:08:26.307Z,19.50
2023-05-06T19:11:16.216Z,19.43
2023-05-06T19:14:05.945Z,19.35
2023-05-06T19:16:54.594Z,19.28
2023-05-06T19:19:45.694Z,19.18
2023-05-06T19:22:34.375Z,19.09
2023-05-06T19:25:22.704Z,18.98
2023-05-06T19:28:11.022Z,18.88
2023-05-06T19:31:00.874Z,18.75
2023-05-06T19:33:49.253Z,18.67
2023-05-06T19:36:37.610Z,18.59
2023-05-06T19:39:26.211Z,18.51
2023-05-06T19:42:15.185Z,18.44
2023-05-06T19:45:07.936Z,18.36
2023-05-06T19:47:58.146Z,18.30
2023-05-06T19:50:46.814Z,18.22
2023-05-06T19:53:35.761Z,18.15
2023-05-06T19:56:24.178Z,18.08
2023-05-06T19:59:12.994Z,18.01
2023-05-06T20:02:01.854Z,17.93
2023-05-06T20:04:51.616Z,17.85
2023-05-06T20:07:39.996Z,17.80
2023-05-06T20:10:28.899Z,17.72
2023-05-06T20:13:17.866Z,17.44
2023-05-06T20:16:06.781Z,17.45
2023-05-06T20:18:55.354Z,17.40
2023-05-06T20:21:45.094Z,17.37
2023-05-06T20:24:34.748Z,17.30
2023-05-06T20:27:23.188Z,17.23
2023-05-06T20:30:12.491Z,17.18
2023-05-06T20:33:01.256Z,17.14
2023-05-06T20:35:51.020Z,16.85
2023-05-06T20:38:40.794Z,16.78
2023-05-06T20:41:29.133Z,16.81
2023-05-06T20:44:17.448Z,16.82
2023-05-06T20:47:10.465Z,16.77
2023-05-06T20:49:59.140Z,16.70
2023-05-06T20:52:48.216Z,16.68
2023-05-06T20:55:38.019Z,16.59
2023-05-06T20:58:28.566Z,16.53
2023-05-06T21:01:17.082Z,16.48
2023-05-06T21:04:06.341Z,16.44
2023-05-06T21:06:54.730Z,16.39
2023-05-06T21:09:43.138Z,16.38
2023-05-06T21:12:34.076Z,16.35
2023-05-06T21:15:22.508Z,16.26
2023-05-06T21:18:10.962Z,16.23
2023-05-06T21:20:59.768Z,16.18
2023-05-06T21:23:48.121Z,16.06
2023-05-06T21:26:36.728Z,16.01
2023-05-06T21:29:26.418Z,15.93
2023-05-06T21:32:15.033Z,15.89
2023-05-06T21:35:04.035Z,15.85
2023-05-06T21:37:53.024Z,15.86
2023-05-06T21:40:41.386Z,15.86
2023-05-06T21:43:31.349Z,15.83
2023-05-06T21:46:21.762Z,15.77
2023-05-06T21:49:10.559Z,15.67
2023-05-06T21:51:58.967Z,15.61
2023-05-06T21:54:47.341Z,15.58
2023-05-06T21:57:35.721Z,15.58
2023-05-06T22:00:24.150Z,15.57
2023-05-06T22:03:13.971Z,15.57
2023-05-06T22:06:02.332Z,15.52
2023-05-06T22:08:50.661Z,15.47
2023-05-06T22:11:39.101Z,15.46
2023-05-06T22:14:37.342Z,15.44
2023-05-06T22:17:29.164Z,15.32
2023-05-06T22:20:18.935Z,15.06
2023-05-06T22:23:07.487Z,14.94
2023-05-06T22:25:56.121Z,14.86
2023-05-06T22:28:45.479Z,14.91
2023-05-06T22:31:33.929Z,14.88
2023-05-06T22:34:22.238Z,14.87
2023-05-06T22:37:12.219Z,14.86
2023-05-06T22:40:00.565Z,14.82
2023-05-06T22:42:49.048Z,14.81
2023-05-06T22:45:37.664Z,14.81
2023-05-06T22:48:26.122Z,14.83
2023-05-06T22:51:15.776Z,14.83
2023-05-06T22:54:05.483Z,14.83
2023-05-06T22:56:53.873Z,14.80
2023-05-06T22:59:42.622Z,14.76
2023-05-06T23:02:30.964Z,14.70
2023-05-06T23:05:19.347Z,14.70
2023-05-06T23:08:07.696Z,14.70
2023-05-06T23:10:57.360Z,14.64
2023-05-06T23:13:45.745Z,14.65
2023-05-06T23:16:34.193Z,14.62
2023-05-06T23:19:24.889Z,14.56
2023-05-06T23:22:14.196Z,14.47
2023-05-06T23:25:02.586Z,14.49
2023-05-06T23:27:52.468Z,14.50
2023-05-06T23:30:41.073Z,14.36
2023-05-06T23:33:29.407Z,14.40
2023-05-06T23:36:17.804Z,14.39
2023-05-06T23:39:06.118Z,14.38
2023-05-06T23:41:54.450Z,14.41
2023-05-06T23:44:44.110Z,14.38
2023-05-06T23:47:32.464Z,14.39
2023-05-06T23:50:20.868Z,14.39
2023-05-06T23:53:09.238Z,14.39
2023-05-06T23:55:57.520Z,14.39
2023-05-06T23:58:45.898Z,14.39
